createdAt,value
2023-05-06T00:01:10.662Z,13.002625
2023-05-06T00:04:35.933Z,13.032837
2023-05-06T00:08:01.979Z,13.083191
2023-05-06T00:11:27.196Z,13.143616
2023-05-06T00:14:52.510Z,13.204041
2023-05-06T00:18:17.639Z,13.173828
2023-05-06T00:21:42.875Z,13.204041
2023-05-06T00:25:08.296Z,13.224182
2023-05-06T00:28:33.349Z,13.204041
2023-05-06T00:31:58.638Z,13.204041
2023-05-06T00:35:23.799Z,13.204041
2023-05-06T00:38:49.043Z,13.19397
2023-05-06T00:42:14.303Z,13.143616
2023-05-06T00:45:39.539Z,13.103333
2023-05-06T00:49:04.859Z,13.042908
2023-05-06T00:52:30.013Z,12.972412
2023-05-06T00:55:55.249Z,12.932129
2023-05-06T00:59:20.470Z,12.891846
2023-05-06T01:02:47.735Z,12.861633
2023-05-06T01:06:10.945Z,12.82135
2023-05-06T01:09:36.191Z,12.851562
2023-05-06T01:13:01.435Z,12.82135
2023-05-06T01:16:26.597Z,12.851562
2023-05-06T01:19:51.804Z,12.82135
2023-05-06T01:23:17.099Z,12.791138
2023-05-06T01:26:42.781Z,12.831421
2023-05-06T01:30:08.022Z,12.791138
2023-05-06T01:33:33.238Z,12.770996
2023-05-06T01:36:58.467Z,12.740784
2023-05-06T01:40:23.702Z,12.7005
2023-05-06T01:43:48.913Z,12.710571
2023-05-06T01:47:14.131Z,12.650146
2023-05-06T01:50:39.394Z,12.670288
2023-05-06T01:54:04.640Z,12.670288
2023-05-06T01:57:29.968Z,12.650146
2023-05-06T02:00:55.087Z,12.619934
2023-05-06T02:04:20.320Z,12.589722
2023-05-06T02:07:45.583Z,12.539368
2023-05-06T02:11:10.832Z,12.539368
2023-05-06T02:14:36.152Z,12.489014
2023-05-06T02:18:02.065Z,12.468872
2023-05-06T02:21:27.210Z,12.458801
2023-05-06T02:24:52.428Z,12.458801
2023-05-06T02:28:17.672Z,12.44873
2023-05-06T02:31:42.998Z,12.468872
2023-05-06T02:35:08.196Z,12.458801
2023-05-06T02:38:33.405Z,12.44873
2023-05-06T02:41:58.540Z,12.408447
2023-05-06T02:45:23.756Z,12.418518
2023-05-06T02:48:49.001Z,12.378235
2023-05-06T02:52:14.180Z,12.368164
2023-05-06T02:55:39.397Z,12.378235
2023-05-06T02:59:04.595Z,12.337952
2023-05-06T03:02:29.838Z,12.348022
2023-05-06T03:05:55.051Z,12.337952
2023-05-06T03:09:20.217Z,12.287598
2023-05-06T03:12:45.472Z,12.267456
2023-05-06T03:16:10.705Z,12.237244
2023-05-06T03:19:35.869Z,12.166748
2023-05-06T03:23:01.152Z,12.166748
2023-05-06T03:26:26.247Z,12.156677
2023-05-06T03:29:51.489Z,12.136536
2023-05-06T03:33:16.720Z,12.116394
2023-05-06T03:36:41.937Z,12.086182
2023-05-06T03:40:07.225Z,12.086182
2023-05-06T03:43:32.339Z,12.096252
2023-05-06T03:46:57.588Z,12.096252
2023-05-06T03:50:22.809Z,12.116394
2023-05-06T03:53:48.007Z,12.06604
2023-05-06T03:57:13.352Z,12.035828
2023-05-06T04:00:38.460Z,12.045898
2023-05-06T04:04:03.689Z,12.045898
2023-05-06T04:07:28.881Z,12.035828
2023-05-06T04:10:54.115Z,12.015686
2023-05-06T04:14:19.351Z,12.015686
2023-05-06T04:17:44.586Z,12.005615
2023-05-06T04:21:09.798Z,11.955261
2023-05-06T04:24:35.023Z,11.94519
2023-05-06T04:28:00.246Z,11.904907
2023-05-06T04:31:25.589Z,11.94519
2023-05-06T04:34:50.658Z,12.015686
2023-05-06T04:38:15.850Z,12.015686
2023-05-06T04:41:41.037Z,12.06604
2023-05-06T04:45:06.298Z,12.045898
2023-05-06T04:48:31.528Z,12.086182
2023-05-06T04:51:56.720Z,12.06604
2023-05-06T04:55:21.957Z,12.136536
2023-05-06T04:58:47.159Z,12.267456
2023-05-06T05:02:12.354Z,12.368164
2023-05-06T05:05:37.660Z,12.489014
2023-05-06T05:09:02.814Z,12.589722
2023-05-06T05:12:28.015Z,12.680359
2023-05-06T05:15:53.254Z,12.710571
2023-05-06T05:19:18.451Z,12.750854
2023-05-06T05:22:43.830Z,12.851562
2023-05-06T05:26:08.888Z,12.922058
2023-05-06T05:29:34.107Z,13.032837
2023-05-06T05:32:59.400Z,13.123474
2023-05-06T05:36:24.571Z,13.264465
2023-05-06T05:39:49.785Z,13.435669
2023-05-06T05:43:14.973Z,13.536377
2023-05-06T05:46:40.202Z,13.566589
2023-05-06T05:50:05.377Z,13.768005
2023-05-06T05:53:30.585Z,13.919067
2023-05-06T05:56:55.913Z,14.019775
2023-05-06T06:00:21.057Z,14.060059
2023-05-06T06:03:46.385Z,14.150696
2023-05-06T06:07:11.518Z,14.170837
2023-05-06T06:10:36.767Z,14.100342
2023-05-06T06:14:02.188Z,14.120483
2023-05-06T06:17:27.287Z,14.211121
2023-05-06T06:20:53.219Z,14.180908
2023-05-06T06:24:17.670Z,14.120483
2023-05-06T06:27:42.913Z,14.060059
2023-05-06T06:31:08.212Z,14.029846
2023-05-06T06:34:33.347Z,14.039917
2023-05-06T06:37:58.561Z,13.999634
2023-05-06T06:41:23.781Z,13.868713
2023-05-06T06:44:48.988Z,13.94928
2023-05-06T06:48:14.326Z,14.120483
2023-05-06T06:51:39.436Z,14.271545
2023-05-06T06:55:04.686Z,14.291687
2023-05-06T06:58:29.911Z,14.271545
2023-05-06T07:01:56.130Z,14.211121
2023-05-06T07:05:21.486Z,14.20105
2023-05-06T07:08:46.636Z,14.150696
2023-05-06T07:12:11.893Z,14.120483
2023-05-06T07:15:37.124Z,14.060059
2023-05-06T07:19:02.360Z,13.989563
2023-05-06T07:22:27.744Z,14.100342
2023-05-06T07:25:52.823Z,14.221191
2023-05-06T07:29:18.138Z,14.362183
2023-05-06T07:32:43.337Z,14.513245
2023-05-06T07:36:08.479Z,14.724731
2023-05-06T07:39:33.751Z,14.916077
2023-05-06T07:42:58.875Z,15.026855
2023-05-06T07:46:24.096Z,14.946289
2023-05-06T07:49:49.293Z,15.006714
2023-05-06T07:53:14.510Z,15.016785
2023-05-06T07:56:39.824Z,15.107422
2023-05-06T08:00:05.032Z,15.127563
2023-05-06T08:03:30.377Z,15.187988
2023-05-06T08:06:55.514Z,15.198059
2023-05-06T08:10:20.730Z,15.08728
2023-05-06T08:13:46.042Z,15.127563
2023-05-06T08:17:11.209Z,15.20813
2023-05-06T08:20:36.408Z,15.20813
2023-05-06T08:24:01.641Z,15.308838
2023-05-06T08:27:26.867Z,15.318909
2023-05-06T08:30:52.236Z,15.379333
2023-05-06T08:34:17.364Z,15.439758
2023-05-06T08:37:42.660Z,15.389404
2023-05-06T08:41:07.937Z,15.4599
2023-05-06T08:44:33.118Z,15.490112
2023-05-06T08:47:58.578Z,15.510254
2023-05-06T08:51:26.003Z,15.621033
2023-05-06T08:54:48.982Z,15.751953
2023-05-06T08:58:14.200Z,15.691528
2023-05-06T09:01:39.570Z,15.681458
2023-05-06T09:05:04.831Z,15.721741
2023-05-06T09:08:29.908Z,15.782166
2023-05-06T09:11:55.079Z,15.83252
2023-05-06T09:15:20.303Z,15.933228
2023-05-06T09:18:45.497Z,16.054077
2023-05-06T09:22:10.826Z,16.174927
2023-05-06T09:25:35.991Z,16.265564
2023-05-06T09:29:01.184Z,16.446838
2023-05-06T09:32:26.407Z,16.527405
2023-05-06T09:35:51.559Z,16.638184
2023-05-06T09:39:16.918Z,16.708679
2023-05-06T09:42:41.964Z,16.84967
2023-05-06T09:46:07.236Z,17.061157
2023-05-06T09:49:32.420Z,17.212219
2023-05-06T09:52:57.638Z,17.333069
2023-05-06T09:56:23.000Z,17.363281
2023-05-06T09:59:48.083Z,17.363281
2023-05-06T10:03:13.428Z,17.232361
2023-05-06T10:06:38.566Z,17.403564
2023-05-06T10:10:03.879Z,17.494202
2023-05-06T10:13:29.394Z,17.705688
2023-05-06T10:16:54.558Z,17.947388
2023-05-06T10:20:19.814Z,18.048096
2023-05-06T10:23:45.096Z,18.249512
2023-05-06T10:27:10.343Z,18.330078
2023-05-06T10:30:35.672Z,18.320007
2023-05-06T10:34:00.797Z,18.410645
2023-05-06T10:37:26.086Z,18.420715
2023-05-06T10:40:51.307Z,18.471069
2023-05-06T10:44:16.591Z,18.541565
2023-05-06T10:47:41.910Z,18.581848
2023-05-06T10:51:07.130Z,18.632202
2023-05-06T10:54:32.337Z,18.622131
2023-05-06T10:57:57.690Z,18.692627
2023-05-06T11:01:22.965Z,18.702698
2023-05-06T11:04:48.187Z,18.73291
2023-05-06T11:08:13.480Z,18.501282
2023-05-06T11:11:38.656Z,18.48114
2023-05-06T11:15:03.874Z,18.541565
2023-05-06T11:18:29.112Z,18.632202
2023-05-06T11:21:54.403Z,18.501282
2023-05-06T11:25:19.513Z,18.269653
2023-05-06T11:28:44.717Z,18.22937
2023-05-06T11:32:09.964Z,18.330078
2023-05-06T11:35:35.182Z,18.48114
2023-05-06T11:39:00.435Z,18.581848
2023-05-06T11:42:25.655Z,18.501282
2023-05-06T11:45:50.916Z,18.471069
2023-05-06T11:49:16.126Z,18.48114
2023-05-06T11:52:41.438Z,18.360291
2023-05-06T11:56:06.756Z,18.22937
2023-05-06T11:59:32.429Z,18.320007
2023-05-06T12:02:57.763Z,18.410645
2023-05-06T12:06:24.491Z,18.48114
2023-05-06T12:09:48.243Z,18.60199
2023-05-06T12:13:13.670Z,18.541565
2023-05-06T12:16:38.852Z,18.330078
2023-05-06T12:20:03.974Z,18.168945
2023-05-06T12:23:29.226Z,17.947388
2023-05-06T12:26:54.398Z,17.705688
2023-05-06T12:30:19.660Z,17.554626
2023-05-06T12:33:44.839Z,17.514343
2023-05-06T12:37:10.049Z,17.484131
2023-05-06T12:40:35.271Z,17.463989
2023-05-06T12:44:00.566Z,17.413635
2023-05-06T12:47:26.007Z,17.463989
2023-05-06T12:50:51.152Z,17.705688
2023-05-06T12:54:16.366Z,17.997742
2023-05-06T12:57:41.619Z,18.108521
2023-05-06T13:01:06.895Z,18.068237
2023-05-06T13:04:33.077Z,17.897034
2023-05-06T13:07:58.709Z,17.695618
2023-05-06T13:11:23.966Z,17.564697
2023-05-06T13:14:49.165Z,17.514343
2023-05-06T13:18:14.396Z,17.463989
2023-05-06T13:21:39.698Z,17.59491
2023-05-06T13:25:04.807Z,17.816467
2023-05-06T13:28:30.006Z,17.997742
2023-05-06T13:31:55.237Z,18.148804
2023-05-06T13:35:20.544Z,18.168945
2023-05-06T13:38:45.854Z,18.068237
2023-05-06T13:42:10.970Z,17.947388
2023-05-06T13:45:36.185Z,17.917175
2023-05-06T13:49:01.391Z,17.745972
2023-05-06T13:52:26.597Z,17.745972
2023-05-06T13:55:51.913Z,17.735901
2023-05-06T13:59:17.020Z,17.735901
2023-05-06T14:02:42.421Z,17.715759
2023-05-06T14:06:07.655Z,17.655334
2023-05-06T14:09:32.830Z,17.615051
2023-05-06T14:12:58.198Z,17.564697
2023-05-06T14:16:26.485Z,17.494202
2023-05-06T14:19:51.705Z,17.403564
2023-05-06T14:23:17.008Z,17.333069
2023-05-06T14:26:42.235Z,17.192078
2023-05-06T14:30:09.160Z,17.111511
2023-05-06T14:33:32.700Z,17.010803
2023-05-06T14:36:57.969Z,16.980591
2023-05-06T14:40:23.229Z,16.960449
2023-05-06T14:43:48.475Z,16.960449
2023-05-06T14:47:13.805Z,16.960449
2023-05-06T14:50:38.958Z,16.960449
2023-05-06T14:54:04.204Z,16.960449
2023-05-06T14:57:29.462Z,16.97052
2023-05-06T15:00:54.730Z,16.980591
2023-05-06T15:04:20.119Z,17.000732
2023-05-06T15:07:45.206Z,17.000732
2023-05-06T15:11:10.445Z,17.041016
2023-05-06T15:46:08.121Z,17.030945
2023-05-06T15:49:51.312Z,17.071228
2023-05-06T15:52:58.388Z,17.081299
2023-05-06T15:56:24.121Z,17.081299
2023-05-06T15:59:48.875Z,17.071228
2023-05-06T16:03:14.220Z,17.010803
2023-05-06T16:06:39.354Z,17.000732
2023-05-06T16:10:04.592Z,16.940308
2023-05-06T16:13:29.818Z,16.930237
2023-05-06T16:16:55.054Z,16.819458
2023-05-06T16:20:20.432Z,16.789246
2023-05-06T16:23:45.487Z,16.819458
2023-05-06T16:27:10.725Z,16.789246
2023-05-06T16:30:36.006Z,16.809387
2023-05-06T16:34:01.196Z,16.829529
2023-05-06T16:37:26.623Z,16.879883
2023-05-06T16:40:51.715Z,16.910095
2023-05-06T16:44:16.972Z,16.859741
2023-05-06T16:47:42.264Z,16.789246
2023-05-06T16:51:07.425Z,16.658325
2023-05-06T16:54:32.733Z,16.577759
2023-05-06T16:57:57.830Z,16.517334
2023-05-06T17:01:23.135Z,16.456909
2023-05-06T17:04:48.267Z,16.34613
2023-05-06T17:08:13.739Z,16.295776
2023-05-06T17:11:38.983Z,16.305847
2023-05-06T17:15:04.080Z,16.325989
2023-05-06T17:18:30.807Z,16.205139
2023-05-06T17:21:56.033Z,16.114502
2023-05-06T17:25:21.304Z,15.96344
2023-05-06T17:28:47.054Z,15.872803
2023-05-06T17:32:12.216Z,15.721741
2023-05-06T17:35:37.430Z,15.500183
2023-05-06T17:39:02.671Z,15.409546
2023-05-06T17:42:27.956Z,15.349121
2023-05-06T17:45:53.313Z,15.278625
2023-05-06T17:49:18.581Z,15.268555
2023-05-06T17:52:43.843Z,15.157776
2023-05-06T17:56:09.050Z,15.006714
2023-05-06T17:59:34.389Z,14.95636
2023-05-06T18:03:00.215Z,14.83551
2023-05-06T18:06:25.860Z,14.805298
2023-05-06T18:09:51.131Z,14.734802
2023-05-06T18:13:16.467Z,14.654236
2023-05-06T18:16:41.782Z,14.523315
2023-05-06T18:20:07.387Z,14.402466
2023-05-06T18:23:32.543Z,14.321899
2023-05-06T18:26:57.919Z,14.271545
2023-05-06T18:30:23.268Z,14.180908
2023-05-06T18:33:49.864Z,14.090271
2023-05-06T18:37:15.332Z,14.039917
2023-05-06T18:40:40.483Z,14.060059
2023-05-06T18:44:05.836Z,13.989563
2023-05-06T18:47:31.741Z,13.94928
2023-05-06T18:50:58.333Z,13.848572
2023-05-06T18:54:24.018Z,13.778076
2023-05-06T18:57:49.229Z,13.747864
2023-05-06T19:01:14.793Z,13.727722
2023-05-06T19:04:40.689Z,13.627014
2023-05-06T19:08:07.579Z,13.596802
2023-05-06T19:11:33.589Z,13.596802
2023-05-06T19:14:59.687Z,13.506165
2023-05-06T19:18:25.103Z,13.415527
2023-05-06T19:21:51.065Z,13.334961
2023-05-06T19:25:16.804Z,13.375244
2023-05-06T19:28:42.776Z,13.334961
2023-05-06T19:32:09.347Z,13.284607
2023-05-06T19:35:35.169Z,13.234253
2023-05-06T19:39:00.716Z,13.19397
2023-05-06T19:42:26.396Z,13.103333
2023-05-06T19:45:52.415Z,12.972412
2023-05-06T19:49:17.932Z,12.932129
2023-05-06T19:52:43.740Z,12.891846
2023-05-06T19:56:09.155Z,12.831421
2023-05-06T19:59:34.708Z,12.791138
2023-05-06T20:03:00.960Z,12.7005
2023-05-06T20:06:28.237Z,12.650146
2023-05-06T20:10:03.856Z,12.670288
2023-05-06T20:13:39.370Z,12.539368
2023-05-06T20:17:08.971Z,12.307739
2023-05-06T20:20:34.574Z,12.126465
2023-05-06T20:23:59.702Z,11.985474
2023-05-06T20:27:25.079Z,11.854553
2023-05-06T20:30:50.356Z,11.763916
2023-05-06T20:34:15.663Z,11.69342
2023-05-06T20:37:40.983Z,11.582642
2023-05-06T20:41:06.255Z,11.492004
2023-05-06T20:44:31.458Z,11.421509
2023-05-06T20:47:56.750Z,11.361084
2023-05-06T20:51:21.931Z,11.250305
2023-05-06T20:54:48.226Z,11.169739
2023-05-06T20:58:13.332Z,11.038818
2023-05-06T21:01:38.641Z,11.109314
2023-05-06T21:05:03.761Z,11.109314
2023-05-06T21:08:28.946Z,11.028748
2023-05-06T21:11:54.288Z,10.998535
2023-05-06T21:15:19.415Z,11.089172
2023-05-06T21:18:44.672Z,11.240234
2023-05-06T21:22:09.881Z,11.391296
2023-05-06T21:25:35.091Z,11.44165
2023-05-06T21:29:00.325Z,11.361084
2023-05-06T21:32:25.696Z,11.361084
2023-05-06T21:35:50.904Z,11.44165
2023-05-06T21:39:16.146Z,11.582642
2023-05-06T21:42:41.353Z,11.653137
2023-05-06T21:46:06.619Z,11.673279
2023-05-06T21:49:31.783Z,11.69342
2023-05-06T21:52:57.014Z,11.733704
2023-05-06T21:56:22.239Z,11.723633
2023-05-06T21:59:47.459Z,11.582642
2023-05-06T22:03:12.896Z,11.552429
2023-05-06T22:06:37.906Z,11.43158
2023-05-06T22:10:03.132Z,11.361084
2023-05-06T22:13:28.399Z,11.290588
2023-05-06T22:16:53.573Z,11.220093
2023-05-06T22:20:18.856Z,11.139526
2023-05-06T22:23:43.971Z,11.210022
2023-05-06T22:27:09.178Z,11.270447
2023-05-06T22:30:34.445Z,11.169739
2023-05-06T22:33:59.667Z,11.169739
2023-05-06T22:37:25.003Z,11.149597
2023-05-06T22:40:50.174Z,11.210022
2023-05-06T22:44:15.416Z,11.270447
2023-05-06T22:47:40.712Z,11.240234
2023-05-06T22:51:05.884Z,11.210022
2023-05-06T22:54:31.167Z,11.18988
2023-05-06T22:57:56.304Z,11.099243
2023-05-06T23:01:21.617Z,11.139526
2023-05-06T23:04:46.754Z,11.018677
2023-05-06T23:08:11.962Z,10.93811
2023-05-06T23:11:37.202Z,11.05896
2023-05-06T23:15:02.404Z,11.139526
2023-05-06T23:18:27.589Z,10.968323
2023-05-06T23:21:52.856Z,10.968323
2023-05-06T23:25:18.237Z,10.917969
2023-05-06T23:28:43.375Z,10.736694
2023-05-06T23:32:08.505Z,10.776978
2023-05-06T23:35:33.703Z,10.80719
2023-05-06T23:38:58.922Z,10.726624
2023-05-06T23:42:25.525Z,10.756836
2023-05-06T23:45:49.468Z,10.726624
2023-05-06T23:49:14.613Z,10.656128
2023-05-06T23:52:39.831Z,10.656128
2023-05-06T23:56:05.051Z,10.635986
2023-05-06T23:59:30.248Z,10.595703
